Airfield :







YOU CAN JOIN US ON...

 
LOGIN :

Register | Disclaimer

   EN    FR    IT 

 









Legend :    VFR   Marginal VFR   IFR   Intensive IFR   Very Intensive IFR
Visi :
Ceiling :
>= 8 km
>= 3000ft
5 to 8 km
1000 to 3000 ft
1500m to 5 km
500 to 1000 ft
800 to 1500m
200 to 500 ft
< 800m
< 200 ft
Symbols :   Thunderstorms  Fog  Heavy snow  Heavy precipitations  Wind > 20 kt






- Airport Elevation : 408 ft


KMLT - Millinocket Municipal

CURRENT METAR :
  • 091953Z AUTO 00000KT 3/4SM -RA BR OVC003 02/01 A3004 RMK AO2 RAB09E32B45UPB32E45 SLP183 P0001 T00170011

EXPIRED METARs :
  • 091943Z AUTO 00000KT 1 3/4SM UP BR OVC005 02/01 A3005 RMK AO2 RAB09E32UPB32 P0001 T00220011
  • 091935Z AUTO 00000KT 2SM UP BR OVC005 02/01 A3005 RMK AO2 RAB09E32UPB32 P0000 T00220011
  • 091916Z AUTO 00000KT 6SM -RA BR OVC005 02/01 A3007 RMK AO2 RAB09 P0000 T00220011
  • 091853Z AUTO 00000KT 10SM OVC006 02/01 A3007 RMK AO2 UPB1756E09 SLP192 P0000 T00220006
  • 091753Z AUTO VRB04KT 10SM OVC009 02/00 A3010 RMK AO2 CIG 006V011 SLP203 60002 T00220000 10022 21006 58027
  • 091731Z AUTO VRB04KT 10SM BKN008 OVC065 02/00 A3011 RMK AO2 CIG 006V014 T00220000
  • 091727Z AUTO 16004KT 10SM BKN010 OVC065 02/00 A3012 RMK AO2 CIG 007V014 T00220000

TAF N/A



MET'MAP, your aeronautical weather chart ! - Copyright ORBIFLY December 2007 - Disclaimer

ORBIFLY MET'MAP TEAM :

Programming & Development : Alexandra Zaïnal
Concept & original design : Baudouin d'Aumeries
Assistance for programming : Marc-Olivier Méhu
Technical & hardware support : Manuel Goepfert

Contact : metmap@orbifly.com




SOURCES & CREDITS :

   NOAA